createdAt,value
2023-02-06T00:01:48.632Z,12.50
2023-02-06T00:08:15.383Z,11.30
2023-02-06T00:10:44.460Z,12.90
2023-02-06T00:13:13.448Z,13.40
2023-02-06T00:15:41.954Z,13.00
2023-02-06T00:18:10.367Z,13.10
2023-02-06T00:20:39.591Z,13.50
2023-02-06T00:23:08.516Z,13.50
2023-02-06T00:25:36.991Z,12.80
2023-02-06T00:28:05.645Z,13.60
2023-02-06T00:30:34.670Z,12.80
2023-02-06T00:33:03.049Z,14.70
2023-02-06T00:35:31.141Z,13.80
2023-02-06T00:38:00.315Z,13.50
2023-02-06T00:40:29.483Z,13.80
2023-02-06T00:42:58.126Z,13.00
2023-02-06T00:45:26.214Z,14.30
2023-02-06T00:47:55.118Z,12.10
2023-02-06T00:50:23.340Z,13.40
2023-02-06T00:52:51.542Z,13.00
2023-02-06T00:55:19.617Z,12.70
2023-02-06T00:57:47.662Z,13.60
2023-02-06T01:00:16.087Z,13.50
2023-02-06T01:02:44.536Z,13.30
2023-02-06T01:05:12.823Z,13.00
2023-02-06T01:07:42.656Z,13.00
2023-02-06T01:10:11.013Z,14.60
2023-02-06T01:12:41.043Z,13.40
2023-02-06T01:15:10.665Z,13.50
2023-02-06T01:17:39.487Z,13.60
2023-02-06T01:20:09.871Z,13.80
2023-02-06T01:22:38.341Z,14.60
2023-02-06T01:25:06.929Z,14.20
2023-02-06T01:27:37.003Z,14.20
2023-02-06T01:30:06.509Z,13.20
2023-02-06T01:32:38.343Z,13.60
2023-02-06T01:35:07.354Z,13.90
2023-02-06T01:37:38.293Z,12.70
2023-02-06T01:40:13.085Z,13.00
2023-02-06T01:42:42.354Z,15.50
2023-02-06T01:45:25.922Z,13.00
2023-02-06T01:48:03.485Z,12.20
2023-02-06T01:50:31.958Z,14.50
2023-02-06T01:53:00.191Z,13.40
2023-02-06T01:55:28.397Z,13.30
2023-02-06T01:57:56.488Z,15.10
2023-02-06T02:00:24.653Z,12.60
2023-02-06T02:02:52.833Z,13.40
2023-02-06T02:05:22.910Z,14.70
2023-02-06T02:08:01.167Z,12.70
2023-02-06T02:10:30.248Z,14.50
2023-02-06T02:13:00.832Z,13.00
2023-02-06T02:15:40.177Z,13.90
2023-02-06T02:18:16.754Z,14.30
2023-02-06T02:20:56.059Z,13.70
2023-02-06T02:24:02.705Z,13.40
2023-02-06T02:26:40.056Z,13.40
2023-02-06T02:29:29.380Z,14.20
2023-02-06T02:32:04.048Z,14.60
2023-02-06T02:35:00.039Z,13.60
2023-02-06T02:37:40.832Z,13.10
2023-02-06T02:40:40.087Z,12.60
2023-02-06T02:43:30.122Z,12.90
2023-02-06T02:46:17.674Z,13.60
2023-02-06T02:48:47.088Z,14.50
2023-02-06T02:51:15.359Z,13.70
2023-02-06T02:53:43.574Z,13.60
2023-02-06T02:56:21.427Z,13.10
2023-02-06T02:58:55.618Z,13.50
2023-02-06T03:01:28.150Z,13.30
2023-02-06T03:03:56.565Z,12.90
2023-02-06T03:06:30.222Z,11.00
2023-02-06T03:09:26.510Z,12.70
2023-02-06T03:12:10.663Z,13.30
2023-02-06T03:14:46.463Z,12.20
2023-02-06T03:17:16.656Z,11.20
2023-02-06T03:19:48.637Z,12.30
2023-02-06T03:22:16.783Z,11.40
2023-02-06T03:24:44.829Z,12.90
2023-02-06T03:27:14.986Z,13.10
2023-02-06T03:29:43.532Z,13.70
2023-02-06T03:32:17.572Z,13.60
2023-02-06T03:35:05.804Z,14.90
2023-02-06T03:37:34.563Z,14.50
2023-02-06T03:40:22.568Z,14.50
2023-02-06T03:42:53.035Z,14.40
2023-02-06T03:45:36.495Z,15.40
2023-02-06T03:48:09.238Z,13.10
2023-02-06T03:50:38.228Z,14.70
2023-02-06T03:53:07.329Z,16.00
2023-02-06T03:55:36.397Z,16.30
2023-02-06T03:58:09.335Z,16.00
2023-02-06T04:00:37.519Z,13.90
2023-02-06T04:03:05.662Z,14.50
2023-02-06T04:05:34.309Z,15.80
2023-02-06T04:08:02.851Z,15.90
2023-02-06T04:10:32.334Z,14.20
2023-02-06T04:13:01.622Z,15.60
2023-02-06T04:15:30.217Z,15.80
2023-02-06T04:18:00.940Z,12.80
2023-02-06T04:20:29.941Z,15.20
2023-02-06T04:22:58.932Z,16.20
2023-02-06T04:25:27.138Z,14.70
2023-02-06T04:27:56.134Z,14.00
2023-02-06T04:30:24.362Z,14.30
2023-02-06T04:32:53.159Z,13.30
2023-02-06T04:35:21.301Z,14.40
2023-02-06T04:37:49.736Z,13.70
2023-02-06T04:40:18.192Z,14.30
2023-02-06T04:42:47.236Z,14.90
2023-02-06T04:45:15.554Z,13.20
2023-02-06T04:47:43.716Z,13.30
2023-02-06T04:50:12.541Z,13.50
2023-02-06T04:52:40.806Z,14.10
2023-02-06T04:55:09.213Z,14.50
2023-02-06T04:57:38.057Z,13.10
2023-02-06T05:00:06.979Z,12.30
2023-02-06T05:02:39.781Z,12.40
2023-02-06T05:05:08.783Z,13.10
2023-02-06T05:07:38.576Z,14.40
2023-02-06T05:10:09.073Z,12.50
2023-02-06T05:12:39.471Z,11.00
2023-02-06T05:15:08.170Z,11.90
2023-02-06T05:17:36.566Z,13.40
2023-02-06T05:20:05.623Z,12.30
2023-02-06T05:22:33.904Z,12.30
2023-02-06T05:25:02.045Z,11.90
2023-02-06T05:27:30.493Z,11.60
2023-02-06T05:29:58.618Z,12.70
2023-02-06T05:32:26.708Z,11.40
2023-02-06T05:34:54.970Z,11.40
2023-02-06T05:37:23.099Z,11.80
2023-02-06T05:39:51.306Z,12.20
2023-02-06T05:42:19.545Z,11.80
2023-02-06T05:44:47.709Z,11.30
2023-02-06T05:47:15.837Z,12.90
2023-02-06T05:49:44.291Z,12.20
2023-02-06T05:52:12.402Z,11.60
2023-02-06T05:54:41.139Z,10.70
2023-02-06T05:57:09.431Z,11.90
2023-02-06T05:59:37.691Z,11.00
2023-02-06T06:02:06.132Z,12.60
2023-02-06T06:04:34.505Z,11.30
2023-02-06T06:07:02.663Z,11.20
2023-02-06T06:09:31.118Z,11.60
2023-02-06T06:12:02.056Z,12.70
2023-02-06T06:14:31.341Z,11.40
2023-02-06T06:17:00.366Z,11.70
2023-02-06T06:19:28.551Z,13.60
2023-02-06T06:21:58.236Z,12.70
2023-02-06T06:24:26.712Z,12.40
2023-02-06T06:26:56.512Z,11.70
2023-02-06T06:29:25.404Z,11.70
2023-02-06T06:31:53.789Z,12.20
2023-02-06T06:34:22.494Z,12.00
2023-02-06T06:36:50.874Z,12.40
2023-02-06T10:37:52.001Z,9.30
2023-02-06T10:40:26.215Z,9.80
2023-02-06T10:43:19.242Z,8.90
2023-02-06T10:46:05.908Z,8.10
2023-02-06T10:48:44.589Z,8.10
2023-02-06T10:51:22.529Z,7.00
2023-02-06T10:53:56.489Z,7.90
2023-02-06T10:56:49.684Z,6.80
2023-02-06T10:59:22.432Z,9.10
2023-02-06T11:02:05.889Z,8.30
2023-02-06T11:04:39.671Z,8.60
2023-02-06T11:07:12.842Z,7.50
2023-02-06T11:09:41.285Z,8.20
2023-02-06T11:12:24.479Z,8.40
2023-02-06T11:14:52.762Z,8.50
2023-02-06T11:17:22.727Z,9.10
2023-02-06T11:19:51.990Z,8.50
2023-02-06T11:22:28.668Z,8.40
2023-02-06T11:25:08.084Z,7.60
2023-02-06T11:27:36.563Z,8.10
2023-02-06T11:30:29.645Z,7.80
2023-02-06T11:33:04.699Z,8.20
2023-02-06T11:35:36.633Z,9.50
2023-02-06T11:38:17.326Z,9.10
2023-02-06T11:41:00.859Z,8.00
2023-02-06T11:43:33.955Z,7.80
2023-02-06T11:46:08.449Z,9.40
2023-02-06T11:48:37.788Z,8.10
2023-02-06T11:51:06.497Z,8.40
2023-02-06T11:53:35.565Z,8.50
2023-02-06T11:56:17.945Z,7.70
2023-02-06T11:58:47.774Z,8.30
2023-02-06T12:01:20.598Z,7.80
2023-02-06T12:03:55.315Z,7.30
2023-02-06T12:06:36.205Z,8.00
2023-02-06T12:09:09.780Z,6.60
2023-02-06T12:12:08.372Z,8.20
2023-02-06T12:14:40.684Z,8.20
2023-02-06T12:17:32.095Z,7.90
2023-02-06T12:20:06.463Z,8.20
2023-02-06T12:22:39.436Z,7.70
2023-02-06T12:25:25.450Z,7.50
2023-02-06T12:27:57.136Z,6.70
2023-02-06T12:30:48.257Z,7.20
2023-02-06T12:33:40.972Z,6.40
2023-02-06T12:36:17.571Z,6.40
2023-02-06T12:38:57.190Z,6.60
2023-02-06T12:41:47.492Z,6.00
2023-02-06T12:44:42.280Z,6.20
2023-02-06T12:47:25.692Z,6.30
2023-02-06T12:50:04.151Z,6.70
2023-02-06T12:52:45.821Z,7.10
2023-02-06T12:55:28.637Z,6.20
2023-02-06T12:57:58.185Z,6.00
2023-02-06T13:00:55.274Z,4.50
2023-02-06T13:03:43.941Z,5.70
2023-02-06T13:06:22.280Z,5.20
2023-02-06T13:08:57.634Z,5.80
2023-02-06T13:11:35.146Z,5.90
2023-02-06T13:14:18.369Z,6.20
2023-02-06T13:17:11.920Z,5.90
2023-02-06T13:19:40.709Z,6.00
2023-02-06T13:22:10.943Z,5.20
2023-02-06T13:24:46.427Z,6.70
2023-02-06T13:27:24.958Z,6.60
2023-02-06T13:29:54.236Z,6.70
2023-02-06T13:32:22.862Z,7.00
2023-02-06T13:34:53.935Z,7.70
2023-02-06T13:37:35.150Z,6.00
2023-02-06T13:40:26.730Z,6.70
2023-02-06T13:43:14.015Z,5.90
2023-02-06T13:45:49.433Z,5.40
2023-02-06T13:48:41.137Z,7.70
2023-02-06T13:51:17.046Z,7.50
2023-02-06T13:54:24.516Z,6.70
2023-02-06T13:57:23.293Z,6.80
2023-02-06T13:59:58.615Z,7.60
2023-02-06T14:02:34.147Z,8.00
2023-02-06T14:05:04.249Z,7.00
2023-02-06T14:07:32.416Z,7.60
2023-02-06T14:10:24.030Z,7.40
2023-02-06T14:13:28.705Z,8.20
2023-02-06T14:16:15.803Z,8.00
2023-02-06T14:18:49.633Z,8.70
2023-02-06T14:21:39.356Z,7.50
2023-02-06T14:24:31.769Z,8.00
2023-02-06T14:27:03.375Z,7.00
2023-02-06T14:32:47.859Z,8.30
2023-02-06T14:35:20.644Z,7.50
2023-02-06T14:38:10.037Z,8.20
2023-02-06T14:40:42.671Z,7.80
2023-02-06T14:43:15.147Z,8.70
2023-02-06T14:46:04.169Z,8.60
2023-02-06T14:48:52.401Z,7.60
2023-02-06T14:51:26.842Z,8.20
2023-02-06T14:53:57.690Z,7.70
2023-02-06T14:56:36.835Z,8.80
2023-02-06T14:59:23.585Z,7.70
2023-02-06T15:01:53.465Z,7.90
2023-02-06T15:04:23.048Z,7.50
2023-02-06T15:06:53.450Z,7.30
2023-02-06T15:09:27.598Z,6.70
2023-02-06T15:12:26.826Z,6.90
2023-02-06T15:15:05.444Z,7.40
2023-02-06T15:17:34.601Z,6.90
2023-02-06T15:20:24.281Z,5.80
2023-02-06T15:22:54.289Z,7.10
2023-02-06T15:25:32.469Z,7.50
2023-02-06T15:28:07.810Z,6.40
2023-02-06T15:30:37.632Z,6.80
2023-02-06T15:33:09.201Z,7.00
2023-02-06T15:35:41.235Z,5.50
2023-02-06T15:40:46.435Z,6.50
2023-02-06T15:43:24.667Z,6.00
2023-02-06T15:45:57.669Z,6.20
2023-02-06T15:48:28.984Z,6.80
2023-02-06T15:50:59.650Z,6.20
2023-02-06T15:53:48.332Z,6.40
2023-02-06T15:56:21.093Z,6.20
2023-02-06T15:58:50.050Z,6.00
2023-02-06T16:01:19.781Z,7.80
2023-02-06T16:03:53.390Z,6.40
2023-02-06T16:06:22.367Z,6.10
2023-02-06T16:08:54.593Z,7.10
2023-02-06T19:30:19.443Z,12.20
2023-02-06T19:32:48.831Z,11.90
2023-02-06T19:35:17.416Z,11.20
2023-02-06T19:37:45.687Z,14.70
2023-02-06T19:40:14.199Z,11.40
2023-02-06T19:42:42.745Z,10.60
2023-02-06T19:45:11.241Z,9.90
2023-02-06T19:47:41.052Z,10.70
2023-02-06T19:50:10.829Z,11.30
2023-02-06T19:52:40.529Z,9.90
2023-02-06T19:55:08.929Z,9.70
2023-02-06T19:57:39.599Z,12.20
2023-02-06T20:00:08.574Z,12.70
2023-02-06T20:02:39.191Z,11.10
2023-02-06T20:05:07.942Z,12.50
2023-02-06T20:07:36.381Z,11.30
2023-02-06T20:10:05.447Z,10.40
2023-02-06T20:12:36.274Z,12.40
2023-02-06T20:15:04.651Z,11.60
2023-02-06T20:17:32.952Z,11.60
2023-02-06T20:20:01.534Z,10.90
2023-02-06T20:22:30.189Z,11.70
2023-02-06T20:24:59.066Z,11.40
2023-02-06T20:27:27.717Z,13.60
2023-02-06T20:29:56.148Z,13.10
2023-02-06T20:32:24.574Z,11.10
2023-02-06T20:34:52.873Z,13.30
2023-02-06T20:37:21.581Z,13.50
2023-02-06T20:39:49.888Z,13.30
2023-02-06T20:42:19.620Z,12.00
2023-02-06T20:44:49.508Z,12.70
2023-02-06T20:47:17.947Z,11.80
2023-02-06T20:49:46.803Z,12.30
2023-02-06T20:52:15.089Z,12.10
2023-02-06T20:54:43.830Z,13.10
2023-02-06T20:57:12.196Z,14.20
2023-02-06T20:59:40.643Z,13.10
2023-02-06T21:02:10.719Z,14.20
2023-02-06T21:04:39.386Z,13.50
2023-02-06T21:07:07.703Z,17.20
2023-02-06T21:09:36.624Z,13.70
2023-02-06T21:12:05.185Z,13.20
2023-02-06T21:14:35.332Z,13.00
2023-02-06T21:17:03.549Z,14.00
2023-02-06T21:19:31.767Z,14.00
2023-02-06T21:22:00.907Z,14.80
2023-02-06T21:24:29.597Z,13.40
2023-02-06T21:26:57.852Z,16.80
2023-02-06T21:29:26.233Z,14.20
2023-02-06T21:32:07.449Z,14.40
2023-02-06T21:34:41.190Z,13.90
2023-02-06T21:37:09.667Z,14.00
2023-02-06T21:39:38.983Z,14.00
2023-02-06T21:42:10.770Z,14.40
2023-02-06T21:44:39.520Z,13.60
2023-02-06T21:47:10.044Z,13.70
2023-02-06T21:49:40.418Z,13.90
2023-02-06T21:52:08.852Z,13.50
2023-02-06T21:54:38.089Z,13.40
2023-02-06T21:57:06.509Z,13.20
2023-02-06T21:59:36.650Z,11.40
2023-02-06T22:02:05.223Z,12.10
2023-02-06T22:04:33.645Z,11.60
2023-02-06T22:07:02.211Z,13.40
2023-02-06T22:09:30.588Z,12.00
2023-02-06T22:11:58.845Z,11.90
2023-02-06T22:14:28.992Z,12.00
2023-02-06T22:17:00.769Z,12.20
2023-02-06T22:19:29.461Z,12.10
2023-02-06T22:24:29.976Z,12.40
2023-02-06T22:26:58.166Z,12.00
2023-02-06T22:29:26.345Z,12.40
2023-02-06T22:31:54.799Z,11.60
2023-02-06T22:34:23.081Z,13.60
2023-02-06T22:36:54.390Z,13.80
2023-02-06T22:39:22.736Z,12.70
2023-02-06T22:41:51.294Z,13.20
2023-02-06T22:44:20.336Z,12.00
2023-02-06T22:46:52.440Z,12.20
2023-02-06T22:49:21.713Z,12.30
2023-02-06T22:51:50.440Z,12.90
2023-02-06T22:54:18.965Z,12.30
2023-02-06T22:56:47.084Z,12.50
2023-02-06T22:59:17.562Z,12.50
2023-02-06T23:01:55.382Z,13.50
2023-02-06T23:04:28.819Z,12.50
2023-02-06T23:06:57.886Z,14.70
2023-02-06T23:09:28.389Z,14.60
2023-02-06T23:12:01.361Z,12.50
2023-02-06T23:14:31.768Z,14.10
2023-02-06T23:17:00.385Z,12.80
2023-02-06T23:19:29.303Z,14.20
2023-02-06T23:21:57.649Z,11.90
2023-02-06T23:24:25.881Z,12.80
2023-02-06T23:26:54.544Z,13.30
2023-02-06T23:29:23.506Z,12.30
2023-02-06T23:31:51.856Z,11.20
2023-02-06T23:34:23.739Z,12.10
2023-02-06T23:36:56.085Z,12.20
2023-02-06T23:39:24.498Z,12.40
2023-02-06T23:41:53.176Z,13.90
2023-02-06T23:44:21.390Z,12.90
2023-02-06T23:46:49.589Z,12.20
2023-02-06T23:49:18.781Z,11.60
2023-02-06T23:51:47.360Z,11.20
2023-02-06T23:54:15.705Z,12.00
2023-02-06T23:56:46.452Z,12.70
2023-02-06T23:59:14.736Z,13.10
